sensor_id;sensor_type;location;lat;lon;timestamp;P1;durP1;ratioP1;P2;durP2;ratioP2
33760;SDS011;20084;47.912;19.044;2022-11-09T00:30:08;43.95;;;25.27;;
33760;SDS011;20084;47.912;19.044;2022-11-09T00:32:37;42.15;;;24.27;;
33760;SDS011;20084;47.912;19.044;2022-11-09T00:35:02;44.22;;;25.90;;
33760;SDS011;20084;47.912;19.044;2022-11-09T00:37:29;45.58;;;26.00;;
33760;SDS011;20084;47.912;19.044;2022-11-09T00:39:54;43.40;;;25.88;;
33760;SDS011;20084;47.912;19.044;2022-11-09T00:42:20;46.22;;;25.25;;
33760;SDS011;20084;47.912;19.044;2022-11-09T00:44:45;42.97;;;25.17;;
33760;SDS011;20084;47.912;19.044;2022-11-09T00:47:11;44.08;;;26.17;;
33760;SDS011;20084;47.912;19.044;2022-11-09T00:49:37;46.88;;;25.50;;
33760;SDS011;20084;47.912;19.044;2022-11-09T00:52:02;49.75;;;27.77;;
33760;SDS011;20084;47.912;19.044;2022-11-09T00:54:28;47.67;;;27.08;;
33760;SDS011;20084;47.912;19.044;2022-11-09T00:56:53;43.20;;;25.90;;
33760;SDS011;20084;47.912;19.044;2022-11-09T00:59:19;48.13;;;25.95;;
33760;SDS011;20084;47.912;19.044;2022-11-09T01:01:45;50.05;;;26.27;;
33760;SDS011;20084;47.912;19.044;2022-11-09T01:04:10;50.00;;;26.73;;
33760;SDS011;20084;47.912;19.044;2022-11-09T01:06:36;47.90;;;25.52;;
33760;SDS011;20084;47.912;19.044;2022-11-09T01:09:01;42.92;;;25.80;;
33760;SDS011;20084;47.912;19.044;2022-11-09T01:11:27;46.80;;;26.15;;
33760;SDS011;20084;47.912;19.044;2022-11-09T01:13:53;48.78;;;27.48;;
33760;SDS011;20084;47.912;19.044;2022-11-09T01:18:10;41.45;;;25.23;;
33760;SDS011;20084;47.912;19.044;2022-11-09T01:20:43;45.60;;;26.27;;
33760;SDS011;20084;47.912;19.044;2022-11-09T01:23:10;44.42;;;26.42;;
33760;SDS011;20084;47.912;19.044;2022-11-09T01:25:36;46.47;;;25.90;;
33760;SDS011;20084;47.912;19.044;2022-11-09T01:28:03;45.80;;;27.15;;
33760;SDS011;20084;47.912;19.044;2022-11-09T01:30:29;44.50;;;26.80;;
33760;SDS011;20084;47.912;19.044;2022-11-09T01:32:58;52.78;;;27.02;;
33760;SDS011;20084;47.912;19.044;2022-11-09T01:35:26;53.47;;;27.45;;
33760;SDS011;20084;47.912;19.044;2022-11-09T01:37:52;47.47;;;26.27;;
33760;SDS011;20084;47.912;19.044;2022-11-09T01:40:17;45.95;;;26.23;;
33760;SDS011;20084;47.912;19.044;2022-11-09T01:42:43;51.05;;;27.50;;
33760;SDS011;20084;47.912;19.044;2022-11-09T01:48:05;46.22;;;26.23;;
33760;SDS011;20084;47.912;19.044;2022-11-09T01:50:38;48.72;;;26.77;;
33760;SDS011;20084;47.912;19.044;2022-11-09T01:53:15;49.95;;;26.80;;
33760;SDS011;20084;47.912;19.044;2022-11-09T01:55:44;54.38;;;30.42;;
33760;SDS011;20084;47.912;19.044;2022-11-09T01:59:28;55.42;;;29.90;;
33760;SDS011;20084;47.912;19.044;2022-11-09T02:01:26;47.42;;;28.42;;
33760;SDS011;20084;47.912;19.044;2022-11-09T02:03:55;49.35;;;28.15;;
33760;SDS011;20084;47.912;19.044;2022-11-09T02:06:34;49.92;;;27.05;;
33760;SDS011;20084;47.912;19.044;2022-11-09T02:11:55;53.10;;;30.77;;
33760;SDS011;20084;47.912;19.044;2022-11-09T02:14:21;49.40;;;27.77;;
33760;SDS011;20084;47.912;19.044;2022-11-09T02:16:49;43.70;;;26.65;;
33760;SDS011;20084;47.912;19.044;2022-11-09T02:19:14;45.97;;;26.70;;
33760;SDS011;20084;47.912;19.044;2022-11-09T02:21:40;39.08;;;23.88;;
33760;SDS011;20084;47.912;19.044;2022-11-09T02:24:06;41.10;;;25.58;;
33760;SDS011;20084;47.912;19.044;2022-11-09T02:29:04;39.42;;;25.25;;
33760;SDS011;20084;47.912;19.044;2022-11-09T02:31:33;37.92;;;24.83;;
33760;SDS011;20084;47.912;19.044;2022-11-09T02:34:05;39.25;;;24.90;;
33760;SDS011;20084;47.912;19.044;2022-11-09T02:36:41;38.90;;;24.83;;
33760;SDS011;20084;47.912;19.044;2022-11-09T02:39:07;37.45;;;24.35;;
33760;SDS011;20084;47.912;19.044;2022-11-09T02:41:35;35.35;;;23.52;;
33760;SDS011;20084;47.912;19.044;2022-11-09T02:44:07;36.35;;;23.52;;
33760;SDS011;20084;47.912;19.044;2022-11-09T02:46:34;35.50;;;23.15;;
33760;SDS011;20084;47.912;19.044;2022-11-09T02:49:00;32.53;;;21.88;;
33760;SDS011;20084;47.912;19.044;2022-11-09T02:51:27;35.60;;;23.40;;
33760;SDS011;20084;47.912;19.044;2022-11-09T02:53:53;33.20;;;21.45;;
33760;SDS011;20084;47.912;19.044;2022-11-09T02:56:19;31.90;;;22.23;;
33760;SDS011;20084;47.912;19.044;2022-11-09T02:58:45;33.42;;;21.40;;
33760;SDS011;20084;47.912;19.044;2022-11-09T03:01:11;34.33;;;21.77;;
33760;SDS011;20084;47.912;19.044;2022-11-09T03:03:36;36.70;;;22.92;;
33760;SDS011;20084;47.912;19.044;2022-11-09T03:06:02;30.80;;;21.10;;
33760;SDS011;20084;47.912;19.044;2022-11-09T03:08:28;33.88;;;22.10;;
33760;SDS011;20084;47.912;19.044;2022-11-09T03:10:54;32.97;;;22.40;;
33760;SDS011;20084;47.912;19.044;2022-11-09T03:13:19;34.00;;;22.27;;
33760;SDS011;20084;47.912;19.044;2022-11-09T03:15:45;31.70;;;21.33;;
33760;SDS011;20084;47.912;19.044;2022-11-09T03:18:11;32.55;;;22.30;;
33760;SDS011;20084;47.912;19.044;2022-11-09T03:20:36;32.83;;;21.98;;
33760;SDS011;20084;47.912;19.044;2022-11-09T03:23:02;32.28;;;21.73;;
33760;SDS011;20084;47.912;19.044;2022-11-09T03:25:27;30.98;;;21.13;;
33760;SDS011;20084;47.912;19.044;2022-11-09T03:27:57;33.65;;;21.95;;
33760;SDS011;20084;47.912;19.044;2022-11-09T03:30:24;32.00;;;21.83;;
33760;SDS011;20084;47.912;19.044;2022-11-09T03:32:50;34.38;;;21.33;;
33760;SDS011;20084;47.912;19.044;2022-11-09T03:35:15;33.58;;;21.73;;
33760;SDS011;20084;47.912;19.044;2022-11-09T03:37:41;32.95;;;21.58;;
33760;SDS011;20084;47.912;19.044;2022-11-09T03:40:06;35.72;;;22.27;;
33760;SDS011;20084;47.912;19.044;2022-11-09T03:42:32;33.60;;;21.48;;
33760;SDS011;20084;47.912;19.044;2022-11-09T03:44:58;34.83;;;22.08;;
33760;SDS011;20084;47.912;19.044;2022-11-09T03:47:24;32.25;;;21.92;;
33760;SDS011;20084;47.912;19.044;2022-11-09T03:49:49;38.30;;;22.70;;
33760;SDS011;20084;47.912;19.044;2022-11-09T03:52:15;35.85;;;23.40;;
33760;SDS011;20084;47.912;19.044;2022-11-09T03:54:40;35.88;;;23.13;;
33760;SDS011;20084;47.912;19.044;2022-11-09T03:57:06;36.20;;;22.85;;
33760;SDS011;20084;47.912;19.044;2022-11-09T03:59:32;37.88;;;23.27;;
33760;SDS011;20084;47.912;19.044;2022-11-09T04:01:57;39.92;;;23.15;;
33760;SDS011;20084;47.912;19.044;2022-11-09T04:04:23;34.42;;;22.15;;
33760;SDS011;20084;47.912;19.044;2022-11-09T04:06:49;35.75;;;22.58;;
33760;SDS011;20084;47.912;19.044;2022-11-09T04:09:14;39.55;;;23.73;;
33760;SDS011;20084;47.912;19.044;2022-11-09T04:11:40;41.58;;;22.40;;
33760;SDS011;20084;47.912;19.044;2022-11-09T04:14:05;34.70;;;21.60;;
33760;SDS011;20084;47.912;19.044;2022-11-09T04:16:31;35.50;;;21.83;;
33760;SDS011;20084;47.912;19.044;2022-11-09T04:18:57;32.80;;;21.75;;
33760;SDS011;20084;47.912;19.044;2022-11-09T04:21:22;29.90;;;20.95;;
33760;SDS011;20084;47.912;19.044;2022-11-09T04:23:48;38.33;;;22.33;;
33760;SDS011;20084;47.912;19.044;2022-11-09T04:26:13;36.60;;;22.52;;
33760;SDS011;20084;47.912;19.044;2022-11-09T04:28:39;36.00;;;22.35;;
33760;SDS011;20084;47.912;19.044;2022-11-09T04:31:05;36.15;;;21.92;;
33760;SDS011;20084;47.912;19.044;2022-11-09T04:33:30;37.40;;;22.55;;
33760;SDS011;20084;47.912;19.044;2022-11-09T04:36:05;36.75;;;22.95;;
33760;SDS011;20084;47.912;19.044;2022-11-09T04:38:31;36.05;;;22.60;;
33760;SDS011;20084;47.912;19.044;2022-11-09T04:41:03;38.17;;;22.73;;
33760;SDS011;20084;47.912;19.044;2022-11-09T04:43:29;34.63;;;22.02;;
33760;SDS011;20084;47.912;19.044;2022-11-09T04:45:58;36.22;;;22.95;;
33760;SDS011;20084;47.912;19.044;2022-11-09T04:50:57;35.15;;;20.25;;
33760;SDS011;20084;47.912;19.044;2022-11-09T04:53:28;36.40;;;22.05;;
33760;SDS011;20084;47.912;19.044;2022-11-09T04:55:54;38.88;;;23.60;;
33760;SDS011;20084;47.912;19.044;2022-11-09T04:58:20;34.58;;;21.60;;
33760;SDS011;20084;47.912;19.044;2022-11-09T05:00:45;40.90;;;22.40;;
33760;SDS011;20084;47.912;19.044;2022-11-09T05:03:11;38.88;;;23.35;;
33760;SDS011;20084;47.912;19.044;2022-11-09T05:05:37;34.63;;;22.05;;
33760;SDS011;20084;47.912;19.044;2022-11-09T05:08:04;36.45;;;22.33;;
33760;SDS011;20084;47.912;19.044;2022-11-09T05:10:30;40.28;;;23.52;;
33760;SDS011;20084;47.912;19.044;2022-11-09T05:12:56;40.10;;;23.42;;
33760;SDS011;20084;47.912;19.044;2022-11-09T05:15:27;38.40;;;22.75;;
33760;SDS011;20084;47.912;19.044;2022-11-09T05:17:53;36.28;;;23.23;;
33760;SDS011;20084;47.912;19.044;2022-11-09T05:20:19;38.00;;;22.42;;
33760;SDS011;20084;47.912;19.044;2022-11-09T05:22:45;39.20;;;23.55;;
33760;SDS011;20084;47.912;19.044;2022-11-09T05:25:29;36.63;;;22.88;;
33760;SDS011;20084;47.912;19.044;2022-11-09T05:27:55;38.83;;;23.67;;
33760;SDS011;20084;47.912;19.044;2022-11-09T05:30:20;40.78;;;22.92;;
33760;SDS011;20084;47.912;19.044;2022-11-09T05:32:46;39.15;;;22.80;;
33760;SDS011;20084;47.912;19.044;2022-11-09T05:35:12;39.90;;;22.92;;
33760;SDS011;20084;47.912;19.044;2022-11-09T05:37:38;36.42;;;23.00;;
33760;SDS011;20084;47.912;19.044;2022-11-09T05:40:04;41.20;;;24.42;;
33760;SDS011;20084;47.912;19.044;2022-11-09T05:42:31;47.67;;;25.73;;
33760;SDS011;20084;47.912;19.044;2022-11-09T05:44:56;42.58;;;24.50;;
33760;SDS011;20084;47.912;19.044;2022-11-09T05:47:22;41.15;;;24.90;;
33760;SDS011;20084;47.912;19.044;2022-11-09T05:49:48;44.70;;;25.58;;
33760;SDS011;20084;47.912;19.044;2022-11-09T05:52:14;46.08;;;26.00;;
33760;SDS011;20084;47.912;19.044;2022-11-09T05:54:39;50.78;;;27.05;;
33760;SDS011;20084;47.912;19.044;2022-11-09T05:57:05;53.22;;;28.52;;
33760;SDS011;20084;47.912;19.044;2022-11-09T05:59:31;57.97;;;31.90;;
33760;SDS011;20084;47.912;19.044;2022-11-09T06:01:56;56.13;;;31.55;;
33760;SDS011;20084;47.912;19.044;2022-11-09T06:04:22;45.35;;;28.08;;
33760;SDS011;20084;47.912;19.044;2022-11-09T06:06:47;48.20;;;26.55;;
33760;SDS011;20084;47.912;19.044;2022-11-09T06:09:13;48.67;;;27.40;;
33760;SDS011;20084;47.912;19.044;2022-11-09T06:11:38;48.50;;;26.67;;
33760;SDS011;20084;47.912;19.044;2022-11-09T06:14:04;52.10;;;28.35;;
33760;SDS011;20084;47.912;19.044;2022-11-09T06:16:30;55.40;;;27.80;;
33760;SDS011;20084;47.912;19.044;2022-11-09T06:18:55;52.88;;;25.83;;
33760;SDS011;20084;47.912;19.044;2022-11-09T06:21:21;51.45;;;26.52;;
33760;SDS011;20084;47.912;19.044;2022-11-09T06:23:47;50.10;;;26.65;;
33760;SDS011;20084;47.912;19.044;2022-11-09T06:26:12;52.17;;;25.45;;
33760;SDS011;20084;47.912;19.044;2022-11-09T06:28:38;47.50;;;26.70;;
33760;SDS011;20084;47.912;19.044;2022-11-09T06:31:06;36.85;;;22.42;;
33760;SDS011;20084;47.912;19.044;2022-11-09T06:33:34;30.73;;;19.70;;
33760;SDS011;20084;47.912;19.044;2022-11-09T06:36:01;30.05;;;19.45;;
33760;SDS011;20084;47.912;19.044;2022-11-09T06:38:27;37.53;;;20.80;;
33760;SDS011;20084;47.912;19.044;2022-11-09T06:40:53;32.00;;;20.42;;
33760;SDS011;20084;47.912;19.044;2022-11-09T06:43:21;30.95;;;19.58;;
33760;SDS011;20084;47.912;19.044;2022-11-09T06:45:47;31.08;;;19.83;;
33760;SDS011;20084;47.912;19.044;2022-11-09T06:48:13;29.77;;;19.65;;
33760;SDS011;20084;47.912;19.044;2022-11-09T06:50:39;35.30;;;19.48;;
33760;SDS011;20084;47.912;19.044;2022-11-09T06:53:05;32.55;;;20.30;;
33760;SDS011;20084;47.912;19.044;2022-11-09T06:55:34;33.10;;;19.70;;
33760;SDS011;20084;47.912;19.044;2022-11-09T06:58:04;29.55;;;18.70;;
33760;SDS011;20084;47.912;19.044;2022-11-09T07:00:33;33.08;;;19.75;;
33760;SDS011;20084;47.912;19.044;2022-11-09T07:02:59;29.92;;;19.30;;
33760;SDS011;20084;47.912;19.044;2022-11-09T07:05:25;30.10;;;19.40;;
33760;SDS011;20084;47.912;19.044;2022-11-09T07:07:50;29.60;;;19.00;;
33760;SDS011;20084;47.912;19.044;2022-11-09T07:10:16;29.35;;;18.30;;
33760;SDS011;20084;47.912;19.044;2022-11-09T07:12:42;33.55;;;20.10;;
33760;SDS011;20084;47.912;19.044;2022-11-09T07:15:07;31.60;;;18.73;;
33760;SDS011;20084;47.912;19.044;2022-11-09T07:17:34;27.85;;;16.95;;
33760;SDS011;20084;47.912;19.044;2022-11-09T07:20:02;24.85;;;16.77;;
33760;SDS011;20084;47.912;19.044;2022-11-09T07:22:28;26.17;;;17.52;;
33760;SDS011;20084;47.912;19.044;2022-11-09T07:24:54;21.85;;;16.10;;
33760;SDS011;20084;47.912;19.044;2022-11-09T07:27:20;26.45;;;16.98;;
33760;SDS011;20084;47.912;19.044;2022-11-09T07:29:46;23.67;;;15.77;;
33760;SDS011;20084;47.912;19.044;2022-11-09T07:32:11;24.10;;;15.90;;
33760;SDS011;20084;47.912;19.044;2022-11-09T07:34:37;22.67;;;15.98;;
33760;SDS011;20084;47.912;19.044;2022-11-09T07:37:03;25.73;;;16.48;;
33760;SDS011;20084;47.912;19.044;2022-11-09T07:39:28;25.58;;;17.23;;
33760;SDS011;20084;47.912;19.044;2022-11-09T07:41:54;24.92;;;17.15;;
33760;SDS011;20084;47.912;19.044;2022-11-09T07:44:20;23.77;;;16.05;;
33760;SDS011;20084;47.912;19.044;2022-11-09T07:46:46;23.35;;;14.75;;
33760;SDS011;20084;47.912;19.044;2022-11-09T07:49:13;22.80;;;15.43;;
33760;SDS011;20084;47.912;19.044;2022-11-09T07:51:39;21.63;;;14.13;;
33760;SDS011;20084;47.912;19.044;2022-11-09T07:54:05;21.42;;;14.30;;
33760;SDS011;20084;47.912;19.044;2022-11-09T07:56:31;19.70;;;13.48;;
33760;SDS011;20084;47.912;19.044;2022-11-09T07:58:56;19.85;;;13.70;;
33760;SDS011;20084;47.912;19.044;2022-11-09T08:01:22;23.75;;;14.65;;
33760;SDS011;20084;47.912;19.044;2022-11-09T08:03:48;20.90;;;14.50;;
33760;SDS011;20084;47.912;19.044;2022-11-09T08:06:13;22.05;;;15.02;;
33760;SDS011;20084;47.912;19.044;2022-11-09T08:08:39;23.30;;;14.55;;
33760;SDS011;20084;47.912;19.044;2022-11-09T08:11:04;23.55;;;14.95;;
33760;SDS011;20084;47.912;19.044;2022-11-09T08:13:30;22.80;;;14.57;;
33760;SDS011;20084;47.912;19.044;2022-11-09T08:15:56;22.95;;;15.00;;
33760;SDS011;20084;47.912;19.044;2022-11-09T08:18:21;22.45;;;14.73;;
33760;SDS011;20084;47.912;19.044;2022-11-09T08:20:48;22.67;;;14.13;;
33760;SDS011;20084;47.912;19.044;2022-11-09T08:23:14;21.25;;;14.75;;
33760;SDS011;20084;47.912;19.044;2022-11-09T08:25:42;20.55;;;13.98;;
33760;SDS011;20084;47.912;19.044;2022-11-09T08:28:08;26.95;;;15.23;;
33760;SDS011;20084;47.912;19.044;2022-11-09T08:30:34;24.42;;;15.70;;
33760;SDS011;20084;47.912;19.044;2022-11-09T08:33:00;23.52;;;14.68;;
33760;SDS011;20084;47.912;19.044;2022-11-09T08:35:27;24.45;;;14.35;;
33760;SDS011;20084;47.912;19.044;2022-11-09T08:37:54;22.77;;;14.75;;
33760;SDS011;20084;47.912;19.044;2022-11-09T08:40:21;23.35;;;14.05;;
33760;SDS011;20084;47.912;19.044;2022-11-09T08:42:49;22.63;;;14.50;;
33760;SDS011;20084;47.912;19.044;2022-11-09T08:45:15;25.88;;;16.35;;
33760;SDS011;20084;47.912;19.044;2022-11-09T08:47:41;22.75;;;14.73;;
33760;SDS011;20084;47.912;19.044;2022-11-09T08:50:08;24.73;;;15.52;;
33760;SDS011;20084;47.912;19.044;2022-11-09T08:52:35;22.98;;;14.48;;
33760;SDS011;20084;47.912;19.044;2022-11-09T08:55:01;24.50;;;16.48;;
33760;SDS011;20084;47.912;19.044;2022-11-09T08:57:27;25.70;;;14.75;;
33760;SDS011;20084;47.912;19.044;2022-11-09T08:59:53;25.95;;;16.45;;
33760;SDS011;20084;47.912;19.044;2022-11-09T09:02:19;25.75;;;16.33;;
33760;SDS011;20084;47.912;19.044;2022-11-09T09:04:45;26.45;;;15.75;;
33760;SDS011;20084;47.912;19.044;2022-11-09T09:07:11;27.58;;;16.63;;
33760;SDS011;20084;47.912;19.044;2022-11-09T09:09:37;28.35;;;16.95;;
33760;SDS011;20084;47.912;19.044;2022-11-09T09:12:03;28.60;;;16.48;;
33760;SDS011;20084;47.912;19.044;2022-11-09T09:14:30;26.67;;;16.77;;
33760;SDS011;20084;47.912;19.044;2022-11-09T09:16:55;26.27;;;15.60;;
33760;SDS011;20084;47.912;19.044;2022-11-09T09:19:21;30.30;;;18.60;;
33760;SDS011;20084;47.912;19.044;2022-11-09T09:21:47;31.50;;;18.02;;
33760;SDS011;20084;47.912;19.044;2022-11-09T09:24:12;32.40;;;19.20;;
33760;SDS011;20084;47.912;19.044;2022-11-09T09:26:38;27.83;;;16.38;;
33760;SDS011;20084;47.912;19.044;2022-11-09T09:29:04;29.38;;;17.02;;
33760;SDS011;20084;47.912;19.044;2022-11-09T09:31:29;28.17;;;16.92;;
33760;SDS011;20084;47.912;19.044;2022-11-09T09:33:55;23.27;;;15.35;;
33760;SDS011;20084;47.912;19.044;2022-11-09T09:36:21;27.73;;;15.50;;
33760;SDS011;20084;47.912;19.044;2022-11-09T09:38:51;24.23;;;14.85;;
33760;SDS011;20084;47.912;19.044;2022-11-09T09:41:24;22.05;;;14.93;;
33760;SDS011;20084;47.912;19.044;2022-11-09T09:44:17;27.58;;;16.02;;
33760;SDS011;20084;47.912;19.044;2022-11-09T09:47:11;25.77;;;15.60;;
33760;SDS011;20084;47.912;19.044;2022-11-09T09:50:00;24.10;;;15.32;;
33760;SDS011;20084;47.912;19.044;2022-11-09T09:57:45;28.92;;;16.48;;
33760;SDS011;20084;47.912;19.044;2022-11-09T10:00:19;29.35;;;18.00;;
33760;SDS011;20084;47.912;19.044;2022-11-09T10:02:48;24.98;;;16.33;;
33760;SDS011;20084;47.912;19.044;2022-11-09T10:05:15;26.50;;;16.77;;
33760;SDS011;20084;47.912;19.044;2022-11-09T10:21:51;26.08;;;17.08;;
33760;SDS011;20084;47.912;19.044;2022-11-09T10:27:31;25.17;;;17.58;;
33760;SDS011;20084;47.912;19.044;2022-11-09T10:30:00;27.42;;;18.40;;
33760;SDS011;20084;47.912;19.044;2022-11-09T10:32:28;28.30;;;18.13;;
33760;SDS011;20084;47.912;19.044;2022-11-09T10:38:01;27.52;;;18.20;;
33760;SDS011;20084;47.912;19.044;2022-11-09T10:42:56;29.63;;;19.15;;
33760;SDS011;20084;47.912;19.044;2022-11-09T10:45:30;30.38;;;19.45;;
33760;SDS011;20084;47.912;19.044;2022-11-09T10:47:58;29.42;;;18.95;;
33760;SDS011;20084;47.912;19.044;2022-11-09T10:51:24;27.33;;;19.73;;
33760;SDS011;20084;47.912;19.044;2022-11-09T10:58:48;44.08;;;26.35;;
33760;SDS011;20084;47.912;19.044;2022-11-09T11:01:19;38.63;;;25.48;;
33760;SDS011;20084;47.912;19.044;2022-11-09T11:03:50;34.80;;;23.13;;
33760;SDS011;20084;47.912;19.044;2022-11-09T11:06:25;36.25;;;24.75;;
33760;SDS011;20084;47.912;19.044;2022-11-09T11:11:37;33.22;;;20.65;;
33760;SDS011;20084;47.912;19.044;2022-11-09T11:14:08;33.83;;;21.45;;
33760;SDS011;20084;47.912;19.044;2022-11-09T11:16:47;31.05;;;20.27;;
33760;SDS011;20084;47.912;19.044;2022-11-09T11:24:44;36.72;;;23.15;;
33760;SDS011;20084;47.912;19.044;2022-11-09T11:27:28;42.00;;;26.50;;
33760;SDS011;20084;47.912;19.044;2022-11-09T11:30:09;79.85;;;41.58;;
33760;SDS011;20084;47.912;19.044;2022-11-09T11:32:42;57.42;;;32.50;;
33760;SDS011;20084;47.912;19.044;2022-11-09T11:35:21;49.60;;;28.90;;
33760;SDS011;20084;47.912;19.044;2022-11-09T11:41:33;35.40;;;23.23;;
33760;SDS011;20084;47.912;19.044;2022-11-09T11:44:02;40.25;;;24.55;;
33760;SDS011;20084;47.912;19.044;2022-11-09T11:49:40;39.47;;;23.50;;
33760;SDS011;20084;47.912;19.044;2022-11-09T12:00:46;39.88;;;23.75;;
33760;SDS011;20084;47.912;19.044;2022-11-09T12:14:38;41.45;;;24.15;;
33760;SDS011;20084;47.912;19.044;2022-11-09T12:20:22;44.33;;;25.63;;
33760;SDS011;20084;47.912;19.044;2022-11-09T12:25:49;45.85;;;27.95;;
33760;SDS011;20084;47.912;19.044;2022-11-09T12:31:41;39.50;;;24.55;;
33760;SDS011;20084;47.912;19.044;2022-11-09T12:36:44;43.80;;;26.15;;
33760;SDS011;20084;47.912;19.044;2022-11-09T12:41:54;43.72;;;26.90;;
33760;SDS011;20084;47.912;19.044;2022-11-09T12:44:31;40.35;;;25.35;;
33760;SDS011;20084;47.912;19.044;2022-11-09T12:47:02;43.35;;;25.88;;
33760;SDS011;20084;47.912;19.044;2022-11-09T12:52:05;44.53;;;26.63;;
33760;SDS011;20084;47.912;19.044;2022-11-09T12:54:33;40.42;;;25.05;;
33760;SDS011;20084;47.912;19.044;2022-11-09T12:57:01;41.75;;;25.27;;
33760;SDS011;20084;47.912;19.044;2022-11-09T12:59:35;41.42;;;24.25;;
33760;SDS011;20084;47.912;19.044;2022-11-09T13:02:13;40.50;;;24.55;;
33760;SDS011;20084;47.912;19.044;2022-11-09T13:04:57;40.15;;;24.38;;
33760;SDS011;20084;47.912;19.044;2022-11-09T13:09:55;41.38;;;25.75;;
33760;SDS011;20084;47.912;19.044;2022-11-09T13:18:02;42.72;;;26.60;;
33760;SDS011;20084;47.912;19.044;2022-11-09T13:23:02;46.20;;;26.08;;
33760;SDS011;20084;47.912;19.044;2022-11-09T13:25:48;51.55;;;27.17;;
33760;SDS011;20084;47.912;19.044;2022-11-09T13:30:54;47.25;;;29.15;;
33760;SDS011;20084;47.912;19.044;2022-11-09T13:33:32;46.63;;;26.48;;
33760;SDS011;20084;47.912;19.044;2022-11-09T13:38:35;44.20;;;26.65;;
33760;SDS011;20084;47.912;19.044;2022-11-09T13:41:43;50.15;;;28.25;;
33760;SDS011;20084;47.912;19.044;2022-11-09T13:46:42;46.88;;;27.73;;
33760;SDS011;20084;47.912;19.044;2022-11-09T13:55:20;52.28;;;30.45;;
33760;SDS011;20084;47.912;19.044;2022-11-09T13:57:54;53.97;;;29.67;;
33760;SDS011;20084;47.912;19.044;2022-11-09T14:00:25;50.22;;;29.00;;
33760;SDS011;20084;47.912;19.044;2022-11-09T14:02:52;50.83;;;29.98;;
33760;SDS011;20084;47.912;19.044;2022-11-09T14:05:33;52.08;;;31.83;;
33760;SDS011;20084;47.912;19.044;2022-11-09T14:08:02;58.10;;;31.98;;
33760;SDS011;20084;47.912;19.044;2022-11-09T14:10:43;56.75;;;30.95;;
33760;SDS011;20084;47.912;19.044;2022-11-09T14:19:00;46.90;;;27.02;;
33760;SDS011;20084;47.912;19.044;2022-11-09T14:21:46;52.22;;;27.42;;
33760;SDS011;20084;47.912;19.044;2022-11-09T14:24:16;54.17;;;28.65;;
33760;SDS011;20084;47.912;19.044;2022-11-09T14:26:59;51.00;;;28.42;;
33760;SDS011;20084;47.912;19.044;2022-11-09T14:29:27;55.50;;;28.70;;
33760;SDS011;20084;47.912;19.044;2022-11-09T14:31:57;49.20;;;28.80;;
33760;SDS011;20084;47.912;19.044;2022-11-09T14:34:24;49.42;;;28.23;;
33760;SDS011;20084;47.912;19.044;2022-11-09T14:36:50;51.30;;;27.77;;
33760;SDS011;20084;47.912;19.044;2022-11-09T14:39:24;51.67;;;29.50;;
33760;SDS011;20084;47.912;19.044;2022-11-09T14:41:52;44.97;;;26.70;;
33760;SDS011;20084;47.912;19.044;2022-11-09T14:44:26;48.40;;;26.67;;
33760;SDS011;20084;47.912;19.044;2022-11-09T14:46:56;47.28;;;26.38;;
33760;SDS011;20084;47.912;19.044;2022-11-09T14:49:23;49.20;;;26.85;;
33760;SDS011;20084;47.912;19.044;2022-11-09T14:51:51;43.83;;;25.92;;
33760;SDS011;20084;47.912;19.044;2022-11-09T14:54:18;51.85;;;26.85;;
33760;SDS011;20084;47.912;19.044;2022-11-09T14:56:48;45.83;;;25.93;;
33760;SDS011;20084;47.912;19.044;2022-11-09T14:59:15;47.30;;;27.20;;
33760;SDS011;20084;47.912;19.044;2022-11-09T15:04:55;49.45;;;28.13;;
33760;SDS011;20084;47.912;19.044;2022-11-09T15:07:23;54.47;;;30.65;;
33760;SDS011;20084;47.912;19.044;2022-11-09T15:09:56;46.90;;;27.55;;
33760;SDS011;20084;47.912;19.044;2022-11-09T15:12:30;53.67;;;29.17;;
33760;SDS011;20084;47.912;19.044;2022-11-09T15:15:00;59.72;;;28.95;;
33760;SDS011;20084;47.912;19.044;2022-11-09T15:17:29;58.90;;;29.52;;
33760;SDS011;20084;47.912;19.044;2022-11-09T15:19:58;57.08;;;29.52;;
33760;SDS011;20084;47.912;19.044;2022-11-09T15:36:42;48.65;;;27.13;;
33760;SDS011;20084;47.912;19.044;2022-11-09T15:38:58;50.47;;;26.35;;
33760;SDS011;20084;47.912;19.044;2022-11-09T15:41:28;52.60;;;26.25;;
33760;SDS011;20084;47.912;19.044;2022-11-09T15:43:55;51.83;;;28.83;;
33760;SDS011;20084;47.912;19.044;2022-11-09T15:46:23;67.22;;;31.25;;
33760;SDS011;20084;47.912;19.044;2022-11-09T15:48:51;54.95;;;29.30;;
33760;SDS011;20084;47.912;19.044;2022-11-09T15:51:17;53.35;;;30.55;;
33760;SDS011;20084;47.912;19.044;2022-11-09T15:53:43;51.85;;;30.13;;
33760;SDS011;20084;47.912;19.044;2022-11-09T15:56:26;54.65;;;29.77;;
33760;SDS011;20084;47.912;19.044;2022-11-09T15:58:52;76.47;;;37.63;;
33760;SDS011;20084;47.912;19.044;2022-11-09T16:01:18;51.45;;;29.27;;
33760;SDS011;20084;47.912;19.044;2022-11-09T16:03:43;51.15;;;28.67;;
33760;SDS011;20084;47.912;19.044;2022-11-09T16:06:10;58.58;;;30.38;;
33760;SDS011;20084;47.912;19.044;2022-11-09T16:08:39;53.05;;;28.85;;
33760;SDS011;20084;47.912;19.044;2022-11-09T16:11:04;58.80;;;32.65;;
33760;SDS011;20084;47.912;19.044;2022-11-09T16:13:31;53.45;;;30.95;;
33760;SDS011;20084;47.912;19.044;2022-11-09T16:16:01;60.20;;;34.33;;
33760;SDS011;20084;47.912;19.044;2022-11-09T16:18:28;58.83;;;34.20;;
33760;SDS011;20084;47.912;19.044;2022-11-09T16:20:54;97.75;;;34.97;;
33760;SDS011;20084;47.912;19.044;2022-11-09T16:23:19;72.80;;;38.00;;
33760;SDS011;20084;47.912;19.044;2022-11-09T16:25:45;67.85;;;36.65;;
33760;SDS011;20084;47.912;19.044;2022-11-09T16:28:11;61.10;;;33.08;;
33760;SDS011;20084;47.912;19.044;2022-11-09T16:30:37;63.83;;;32.05;;
33760;SDS011;20084;47.912;19.044;2022-11-09T16:33:02;56.78;;;30.95;;
33760;SDS011;20084;47.912;19.044;2022-11-09T16:35:28;63.30;;;32.85;;
33760;SDS011;20084;47.912;19.044;2022-11-09T16:37:54;56.13;;;30.98;;
33760;SDS011;20084;47.912;19.044;2022-11-09T16:40:21;62.55;;;31.23;;
33760;SDS011;20084;47.912;19.044;2022-11-09T16:42:47;56.15;;;29.73;;
33760;SDS011;20084;47.912;19.044;2022-11-09T16:45:14;55.25;;;28.13;;
33760;SDS011;20084;47.912;19.044;2022-11-09T16:47:45;56.65;;;27.02;;
33760;SDS011;20084;47.912;19.044;2022-11-09T16:50:13;53.05;;;27.27;;
33760;SDS011;20084;47.912;19.044;2022-11-09T16:52:40;53.95;;;28.00;;
33760;SDS011;20084;47.912;19.044;2022-11-09T16:55:06;55.53;;;26.13;;
33760;SDS011;20084;47.912;19.044;2022-11-09T16:57:33;60.10;;;27.60;;
33760;SDS011;20084;47.912;19.044;2022-11-09T16:59:59;55.15;;;27.23;;
33760;SDS011;20084;47.912;19.044;2022-11-09T17:02:25;59.10;;;27.05;;
33760;SDS011;20084;47.912;19.044;2022-11-09T17:04:51;58.03;;;26.55;;
33760;SDS011;20084;47.912;19.044;2022-11-09T17:07:17;53.10;;;28.15;;
33760;SDS011;20084;47.912;19.044;2022-11-09T17:09:44;53.55;;;27.30;;